Time;durP1;ratioP1;P1;durP2;ratioP2;P2;SDS_P1;SDS_P2;PMS_P1;PMS_P2;Temp;Humidity;BMP_temperature;BMP_pressure;BME280_temperature;BME280_humidity;BME280_pressure;Samples;Min_cycle;Max_cycle;Signal;HPM_P1;HPM_P2
2024/04/10 00:01:51;;;;;;;3.78;1.10;;;;;;;;;;5452956;26;20338;-63
2024/04/10 00:04:17;;;;;;;7.13;1.15;;;;;;;;;;5456116;26;20010;-62
2024/04/10 00:06:43;;;;;;;7.25;1.20;;;;;;;;;;5445520;26;20014;-63
2024/04/10 00:09:08;;;;;;;5.10;1.10;;;;;;;;;;5460617;26;20009;-63
2024/04/10 00:11:34;;;;;;;4.65;1.08;;;;;;;;;;5461536;26;20312;-63
2024/04/10 00:14:00;;;;;;;6.60;1.00;;;;;;;;;;5466294;26;20055;-62
2024/04/10 00:16:25;;;;;;;6.55;1.15;;;;;;;;;;5449207;26;19999;-63
2024/04/10 00:18:51;;;;;;;5.70;0.90;;;;;;;;;;5439218;26;20323;-63
2024/04/10 00:21:16;;;;;;;4.00;1.10;;;;;;;;;;5465938;26;20411;-64
2024/04/10 00:23:42;;;;;;;4.13;1.10;;;;;;;;;;5459705;26;20346;-63
2024/04/10 00:26:09;;;;;;;2.92;0.73;;;;;;;;;;5445866;26;20006;-64
2024/04/10 00:28:34;;;;;;;7.70;1.10;;;;;;;;;;5476723;26;20006;-63
2024/04/10 00:31:06;;;;;;;5.78;1.27;;;;;;;;;;5474082;26;20014;-63
2024/04/10 00:33:32;;;;;;;6.13;1.30;;;;;;;;;;5440806;26;19999;-64
2024/04/10 00:35:58;;;;;;;6.40;1.27;;;;;;;;;;5457217;26;20406;-63
2024/04/10 00:38:23;;;;;;;9.23;1.40;;;;;;;;;;5456141;26;20345;-63
2024/04/10 00:40:59;;;;;;;6.57;1.30;;;;;;;;;;5446267;26;20006;-64
2024/04/10 00:43:25;;;;;;;6.30;1.17;;;;;;;;;;5433284;26;19992;-63
2024/04/10 00:45:56;;;;;;;5.93;1.20;;;;;;;;;;5451860;26;20542;-63
2024/04/10 00:48:21;;;;;;;5.30;1.23;;;;;;;;;;5441577;26;19998;-63
2024/04/10 00:50:47;;;;;;;5.15;1.13;;;;;;;;;;5451789;26;20396;-64
2024/04/10 00:53:12;;;;;;;6.13;1.20;;;;;;;;;;5445479;26;20404;-64
2024/04/10 00:55:39;;;;;;;5.78;1.20;;;;;;;;;;5448638;26;20006;-63
2024/04/10 00:58:05;;;;;;;7.63;1.38;;;;;;;;;;5450464;26;20013;-62
2024/04/10 01:00:31;;;;;;;;;;;;;;;;;;5430899;26;20007;-64
2024/04/10 01:02:57;;;;;;;6.27;1.07;;;;;;;;;;5435554;26;19928;-63
2024/04/10 01:05:23;;;;;;;6.22;1.33;;;;;;;;;;5421077;26;20734;-63
2024/04/10 01:07:48;;;;;;;7.07;1.30;;;;;;;;;;5435958;26;20013;-63
2024/04/10 01:10:14;;;;;;;5.75;1.23;;;;;;;;;;5438415;26;20007;-62
2024/04/10 01:12:40;;;;;;;7.50;1.42;;;;;;;;;;5435643;26;20010;-62
2024/04/10 01:15:06;;;;;;;6.43;1.27;;;;;;;;;;5449886;26;20010;-62
2024/04/10 01:17:31;;;;;;;;;;;;;;;;;;5447746;26;20330;-63
2024/04/10 01:19:57;;;;;;;3.20;1.30;;;;;;;;;;5451174;26;19924;-64
2024/04/10 01:22:22;;;;;;;4.70;1.17;;;;;;;;;;5425434;26;20370;-64
2024/04/10 01:24:50;;;;;;;5.45;1.23;;;;;;;;;;5449034;26;20483;-63
2024/04/10 01:27:15;;;;;;;4.03;1.13;;;;;;;;;;5424664;26;20378;-63
2024/04/10 01:29:42;;;;;;;4.53;1.00;;;;;;;;;;5441832;26;20011;-62
2024/04/10 01:32:08;;;;;;;3.08;0.77;;;;;;;;;;5429143;26;20010;-64
2024/04/10 01:34:33;;;;;;;7.80;1.10;;;;;;;;;;5444610;26;20007;-63
2024/04/10 01:36:59;;;;;;;4.57;0.95;;;;;;;;;;5423612;26;20093;-63
2024/04/10 01:39:25;;;;;;;4.63;1.08;;;;;;;;;;5441667;26;20412;-64
2024/04/10 01:41:50;;;;;;;6.32;1.20;;;;;;;;;;5449814;26;20007;-63
2024/04/10 01:44:16;;;;;;;4.45;1.00;;;;;;;;;;5429924;26;20003;-63
2024/04/10 01:46:41;;;;;;;3.33;1.02;;;;;;;;;;5435399;26;20007;-64
2024/04/10 01:49:07;;;;;;;6.38;1.40;;;;;;;;;;5436228;26;20072;-63
2024/04/10 01:51:32;;;;;;;5.75;1.10;;;;;;;;;;5431789;26;19999;-64
2024/04/10 01:53:58;;;;;;;4.75;1.10;;;;;;;;;;5447309;26;20022;-64
2024/04/10 01:56:23;;;;;;;5.75;1.40;;;;;;;;;;5437916;26;20083;-64
2024/04/10 01:58:49;;;;;;;5.45;1.08;;;;;;;;;;5450597;26;20053;-64
2024/04/10 02:01:14;;;;;;;4.43;0.95;;;;;;;;;;5431414;26;20013;-64
2024/04/10 02:03:40;;;;;;;5.47;1.13;;;;;;;;;;5437153;26;20011;-64
2024/04/10 02:06:05;;;;;;;4.32;0.90;;;;;;;;;;5432948;26;20411;-64
2024/04/10 02:08:31;;;;;;;6.72;1.23;;;;;;;;;;5456309;26;20001;-63
2024/04/10 02:11:00;;;;;;;5.47;1.10;;;;;;;;;;5452624;26;20010;-62
2024/04/10 02:13:25;;;;;;;5.28;1.15;;;;;;;;;;5443155;26;20007;-63
2024/04/10 02:15:51;;;;;;;5.78;1.10;;;;;;;;;;5442628;26;20411;-64
2024/04/10 02:18:17;;;;;;;5.22;1.20;;;;;;;;;;5443605;26;20063;-64
2024/04/10 02:20:43;;;;;;;5.60;1.10;;;;;;;;;;5434375;26;20007;-64
2024/04/10 02:23:08;;;;;;;7.18;1.40;;;;;;;;;;5442858;26;20056;-63
2024/04/10 02:25:34;;;;;;;3.30;1.02;;;;;;;;;;5451509;26;19995;-64
2024/04/10 02:27:59;;;;;;;6.03;1.00;;;;;;;;;;5445095;26;20007;-64
2024/04/10 02:30:25;;;;;;;3.17;0.90;;;;;;;;;;5450309;26;20075;-64
2024/04/10 02:32:50;;;;;;;6.00;0.93;;;;;;;;;;5445886;26;20003;-64
2024/04/10 02:35:16;;;;;;;4.07;1.05;;;;;;;;;;5415695;26;20004;-62
2024/04/10 02:37:42;;;;;;;2.72;0.90;;;;;;;;;;5445874;26;20007;-63
2024/04/10 02:40:08;;;;;;;8.10;1.10;;;;;;;;;;5422738;26;20002;-65
2024/04/10 02:42:34;;;;;;;4.43;1.00;;;;;;;;;;5451828;26;20462;-63
2024/04/10 02:45:00;;;;;;;5.65;1.02;;;;;;;;;;5422347;26;20073;-62
2024/04/10 02:47:26;;;;;;;7.25;1.30;;;;;;;;;;5447639;26;20010;-63
2024/04/10 02:49:52;;;;;;;4.18;1.15;;;;;;;;;;5445557;26;20003;-63
2024/04/10 02:52:18;;;;;;;2.53;0.90;;;;;;;;;;5440931;26;20360;-64
2024/04/10 02:54:44;;;;;;;;;;;;;;;;;;5424013;26;19995;-64
2024/04/10 02:57:10;;;;;;;5.33;1.20;;;;;;;;;;5450602;26;19931;-64
2024/04/10 02:59:36;;;;;;;4.90;1.00;;;;;;;;;;5437723;26;20362;-65
2024/04/10 03:02:02;;;;;;;7.45;1.27;;;;;;;;;;5440294;26;20002;-63
2024/04/10 03:04:27;;;;;;;4.53;1.08;;;;;;;;;;5446049;26;20397;-63
2024/04/10 03:06:53;;;;;;;5.30;1.10;;;;;;;;;;5432069;26;20526;-63
2024/04/10 03:09:21;;;;;;;4.68;1.45;;;;;;;;;;5450252;26;20513;-63
2024/04/10 03:11:46;;;;;;;4.47;1.20;;;;;;;;;;5433646;26;20450;-63
2024/04/10 03:14:12;;;;;;;4.50;1.02;;;;;;;;;;5450664;26;19994;-63
2024/04/10 03:16:38;;;;;;;4.65;1.58;;;;;;;;;;5442612;26;20000;-64
2024/04/10 03:19:03;;;;;;;6.10;1.08;;;;;;;;;;5416880;26;20007;-65
2024/04/10 03:21:29;;;;;;;5.93;1.13;;;;;;;;;;5424975;26;20013;-65
2024/04/10 03:23:56;;;;;;;5.35;1.20;;;;;;;;;;5436176;26;20003;-63
2024/04/10 03:26:21;;;;;;;4.25;1.20;;;;;;;;;;5438557;26;20014;-62
2024/04/10 03:28:48;;;;;;;5.32;1.10;;;;;;;;;;5450463;26;20040;-64
2024/04/10 03:31:14;;;;;;;5.35;1.20;;;;;;;;;;5440023;26;20013;-63
2024/04/10 03:33:39;;;;;;;6.57;1.20;;;;;;;;;;5446209;26;20007;-65
2024/04/10 03:36:05;;;;;;;4.88;1.20;;;;;;;;;;5425249;26;20083;-64
2024/04/10 03:38:30;;;;;;;5.13;1.27;;;;;;;;;;5450925;26;20416;-64
2024/04/10 03:40:56;;;;;;;4.97;1.20;;;;;;;;;;5440343;26;20400;-63
2024/04/10 03:43:21;;;;;;;8.57;1.80;;;;;;;;;;5450801;26;20331;-64
2024/04/10 03:45:51;;;;;;;4.88;1.13;;;;;;;;;;5448053;26;20013;-65
2024/04/10 03:48:17;;;;;;;6.95;1.38;;;;;;;;;;5449999;26;20007;-65
2024/04/10 03:50:42;;;;;;;5.90;1.30;;;;;;;;;;5439052;26;20013;-65
2024/04/10 03:53:08;;;;;;;6.75;1.85;;;;;;;;;;5449570;26;20011;-62
2024/04/10 03:55:33;;;;;;;7.55;1.85;;;;;;;;;;5447696;26;20063;-64
2024/04/10 03:57:59;;;;;;;7.32;2.00;;;;;;;;;;5450239;26;20002;-64
2024/04/10 04:00:24;;;;;;;6.47;1.70;;;;;;;;;;5438840;26;20004;-64
2024/04/10 04:02:50;;;;;;;7.28;1.90;;;;;;;;;;5435885;26;20015;-64
2024/04/10 04:05:15;;;;;;;8.45;1.90;;;;;;;;;;5433931;26;20074;-67
2024/04/10 04:07:41;;;;;;;10.13;2.30;;;;;;;;;;5436418;26;20323;-63
2024/04/10 04:10:06;;;;;;;6.90;1.90;;;;;;;;;;5412538;26;20402;-64
2024/04/10 04:12:32;;;;;;;9.43;2.55;;;;;;;;;;5431623;26;20340;-64
2024/04/10 04:14:58;;;;;;;7.78;2.28;;;;;;;;;;5434467;26;20007;-64
2024/04/10 04:17:23;;;;;;;7.90;2.30;;;;;;;;;;5435041;26;19995;-64
2024/04/10 04:19:49;;;;;;;11.82;2.53;;;;;;;;;;5425496;26;20013;-63
2024/04/10 04:22:14;;;;;;;6.40;2.10;;;;;;;;;;5437875;26;20071;-63
2024/04/10 04:24:40;;;;;;;8.73;2.65;;;;;;;;;;5428066;26;20014;-64
2024/04/10 04:27:06;;;;;;;6.38;2.20;;;;;;;;;;5435732;26;20003;-64
2024/04/10 04:29:33;;;;;;;9.98;2.17;;;;;;;;;;5421552;26;20010;-64
2024/04/10 04:31:59;;;;;;;7.35;2.10;;;;;;;;;;5447141;26;19998;-65
2024/04/10 04:34:24;;;;;;;6.65;1.95;;;;;;;;;;5446416;26;20416;-64
2024/04/10 04:36:50;;;;;;;8.77;2.38;;;;;;;;;;5443321;26;20765;-63
2024/04/10 04:39:15;;;;;;;6.93;2.20;;;;;;;;;;5442651;26;20443;-66
2024/04/10 04:41:41;;;;;;;6.60;2.03;;;;;;;;;;5428134;26;20795;-64
2024/04/10 04:44:07;;;;;;;6.82;2.70;;;;;;;;;;5427631;26;19991;-63
2024/04/10 04:46:32;;;;;;;10.20;2.53;;;;;;;;;;5432494;26;20000;-63
2024/04/10 04:48:58;;;;;;;8.13;2.53;;;;;;;;;;5435361;26;20487;-65
2024/04/10 04:51:23;;;;;;;7.50;2.50;;;;;;;;;;5442278;26;20430;-67
2024/04/10 04:53:49;;;;;;;9.90;2.50;;;;;;;;;;5436652;26;20372;-65
2024/04/10 04:56:14;;;;;;;8.98;2.85;;;;;;;;;;5435647;26;20052;-65
2024/04/10 04:58:40;;;;;;;7.97;2.28;;;;;;;;;;5432530;26;20447;-64
2024/04/10 05:01:07;;;;;;;7.75;2.60;;;;;;;;;;5467097;26;19998;-64
2024/04/10 05:06:16;;;;;;;6.50;2.78;;;;;;;;;;5435113;26;20339;-65
2024/04/10 05:08:42;;;;;;;6.35;2.40;;;;;;;;;;5438771;26;20010;-64
2024/04/10 05:11:08;;;;;;;9.90;2.80;;;;;;;;;;5444082;26;20048;-62
2024/04/10 05:13:35;;;;;;;7.90;2.45;;;;;;;;;;5429181;26;19999;-62
2024/04/10 05:16:00;;;;;;;10.38;2.17;;;;;;;;;;5451953;26;19999;-61
2024/04/10 05:18:26;;;;;;;8.05;2.15;;;;;;;;;;5446328;26;19994;-61
2024/04/10 05:20:52;;;;;;;7.63;2.50;;;;;;;;;;5446625;26;20002;-62
2024/04/10 05:23:18;;;;;;;5.50;2.10;;;;;;;;;;5450572;26;20038;-62
2024/04/10 05:25:44;;;;;;;5.65;2.40;;;;;;;;;;5451479;26;20005;-63
2024/04/10 05:28:09;;;;;;;8.55;2.40;;;;;;;;;;5442984;26;20325;-61
2024/04/10 05:30:35;;;;;;;5.80;2.28;;;;;;;;;;5449033;26;20070;-62
2024/04/10 05:33:00;;;;;;;6.25;2.20;;;;;;;;;;5445225;26;19995;-61
2024/04/10 05:35:26;;;;;;;8.48;2.22;;;;;;;;;;5446275;26;20362;-61
2024/04/10 05:37:52;;;;;;;6.40;2.10;;;;;;;;;;5447502;26;19995;-62
2024/04/10 05:40:18;;;;;;;10.15;2.83;;;;;;;;;;5439292;26;20602;-61
2024/04/10 05:42:44;;;;;;;7.72;2.95;;;;;;;;;;5451076;26;20473;-62
2024/04/10 05:45:10;;;;;;;8.43;2.58;;;;;;;;;;5438176;26;20004;-62
2024/04/10 05:47:36;;;;;;;;;;;;;;;;;;5434603;26;20109;-61
2024/04/10 05:50:01;;;;;;;7.80;2.47;;;;;;;;;;5422464;26;19936;-62
2024/04/10 05:52:28;;;;;;;11.27;2.47;;;;;;;;;;5445409;26;20390;-62
2024/04/10 05:54:54;;;;;;;9.63;3.30;;;;;;;;;;5422605;26;19999;-63
2024/04/10 05:57:21;;;;;;;9.40;2.70;;;;;;;;;;5427810;26;20396;-62
2024/04/10 05:59:46;;;;;;;6.22;2.83;;;;;;;;;;5421388;26;20034;-64
2024/04/10 06:02:12;;;;;;;7.60;2.63;;;;;;;;;;5424730;26;20009;-64
2024/04/10 06:04:38;;;;;;;8.68;2.65;;;;;;;;;;5432814;26;22172;-65
2024/04/10 06:07:04;;;;;;;8.18;2.78;;;;;;;;;;5429721;26;20002;-63
2024/04/10 06:09:30;;;;;;;10.27;3.15;;;;;;;;;;5439346;26;20467;-65
2024/04/10 06:11:55;;;;;;;8.05;3.20;;;;;;;;;;5446367;26;20003;-65
2024/04/10 06:14:21;;;;;;;7.13;2.80;;;;;;;;;;5421078;26;20012;-65
2024/04/10 06:16:46;;;;;;;8.27;2.47;;;;;;;;;;5444408;26;20479;-65
2024/04/10 06:19:12;;;;;;;7.43;2.38;;;;;;;;;;5423346;26;20524;-64
2024/04/10 06:21:38;;;;;;;6.85;2.55;;;;;;;;;;5435826;26;20867;-63
2024/04/10 06:24:04;;;;;;;8.20;2.60;;;;;;;;;;5449638;26;19999;-65
2024/04/10 06:26:30;;;;;;;6.35;2.85;;;;;;;;;;5450745;26;20014;-66
2024/04/10 06:28:55;;;;;;;10.00;2.80;;;;;;;;;;5437912;26;20419;-65
2024/04/10 06:31:21;;;;;;;7.70;2.90;;;;;;;;;;5442449;26;20466;-66
2024/04/10 06:33:46;;;;;;;7.25;2.60;;;;;;;;;;5449291;26;20002;-65
2024/04/10 06:36:12;;;;;;;9.98;2.95;;;;;;;;;;5448193;26;20006;-66
2024/04/10 06:38:38;;;;;;;7.78;2.33;;;;;;;;;;5445531;26;20049;-65
2024/04/10 06:41:05;;;;;;;6.78;2.55;;;;;;;;;;5437673;26;20076;-65
2024/04/10 06:43:32;;;;;;;9.20;2.83;;;;;;;;;;5440958;26;20112;-63
2024/04/10 06:45:59;;;;;;;6.78;2.40;;;;;;;;;;5429283;26;20009;-65
2024/04/10 06:48:25;;;;;;;8.57;2.90;;;;;;;;;;5443691;26;20002;-65
2024/04/10 06:50:55;;;;;;;7.57;3.20;;;;;;;;;;5443944;26;20005;-66
2024/04/10 06:53:20;;;;;;;8.80;3.30;;;;;;;;;;5426669;26;19999;-64
2024/04/10 06:56:12;;;;;;;8.32;3.22;;;;;;;;;;5434314;26;20009;-64
2024/04/10 06:58:38;;;;;;;6.80;2.92;;;;;;;;;;5445645;26;19999;-63
2024/04/10 07:01:07;;;;;;;8.00;2.97;;;;;;;;;;5446529;26;20074;-64
2024/04/10 07:03:36;;;;;;;7.28;3.20;;;;;;;;;;5456997;26;20003;-64
2024/04/10 07:06:09;;;;;;;12.40;3.38;;;;;;;;;;5440080;26;20092;-65
2024/04/10 07:08:35;;;;;;;;;;;;;;;;;;5427247;26;19999;-65
2024/04/10 07:11:01;;;;;;;7.25;2.60;;;;;;;;;;5419491;26;19925;-64
2024/04/10 07:13:27;;;;;;;12.05;3.10;;;;;;;;;;5451987;26;20049;-66
2024/04/10 07:16:02;;;;;;;7.45;2.83;;;;;;;;;;5461585;26;19990;-65
2024/04/10 07:18:31;;;;;;;6.72;2.47;;;;;;;;;;5459932;26;20022;-65
2024/04/10 07:21:09;;;;;;;8.85;2.20;;;;;;;;;;5460717;26;20023;-67
2024/04/10 07:23:39;;;;;;;6.80;2.45;;;;;;;;;;5448361;26;20009;-64
2024/04/10 07:26:12;;;;;;;6.97;2.42;;;;;;;;;;5440850;26;19999;-64
2024/04/10 07:28:41;;;;;;;6.90;2.30;;;;;;;;;;5450046;26;20002;-63
2024/04/10 07:31:07;;;;;;;10.00;2.20;;;;;;;;;;5448599;26;20002;-63
2024/04/10 07:33:33;;;;;;;6.30;1.73;;;;;;;;;;5449521;26;20003;-64
2024/04/10 07:36:05;;;;;;;7.90;1.90;;;;;;;;;;5446753;26;20052;-65
2024/04/10 07:38:31;;;;;;;7.75;2.00;;;;;;;;;;5450197;26;20010;-65
2024/04/10 07:40:56;;;;;;;8.85;2.28;;;;;;;;;;5448795;26;20013;-64
2024/04/10 07:43:22;;;;;;;6.90;1.98;;;;;;;;;;5449192;26;20007;-63
2024/04/10 07:45:47;;;;;;;5.25;2.00;;;;;;;;;;5447913;26;20003;-64
2024/04/10 07:48:13;;;;;;;6.18;1.73;;;;;;;;;;5449774;26;20009;-65
2024/04/10 07:50:39;;;;;;;7.03;1.70;;;;;;;;;;5444855;26;20007;-65
2024/04/10 07:53:06;;;;;;;4.85;1.73;;;;;;;;;;5417207;26;20007;-65
2024/04/10 07:55:32;;;;;;;7.80;2.10;;;;;;;;;;5449297;26;19994;-65
2024/04/10 07:57:57;;;;;;;7.55;1.92;;;;;;;;;;5451943;26;20415;-64
2024/04/10 08:00:23;;;;;;;8.13;2.00;;;;;;;;;;5450359;26;19999;-64
2024/04/10 08:02:48;;;;;;;6.60;1.67;;;;;;;;;;5450205;26;20010;-65
2024/04/10 08:05:14;;;;;;;7.15;1.75;;;;;;;;;;5452493;26;20012;-63
2024/04/10 08:07:39;;;;;;;6.75;1.95;;;;;;;;;;5452108;26;20393;-64
2024/04/10 08:10:05;;;;;;;5.57;1.50;;;;;;;;;;5453153;26;20506;-64
2024/04/10 08:12:30;;;;;;;7.63;1.70;;;;;;;;;;5451051;26;20350;-63
2024/04/10 08:14:56;;;;;;;8.05;2.03;;;;;;;;;;5446655;26;20467;-63
2024/04/10 08:17:22;;;;;;;6.28;1.35;;;;;;;;;;5446581;26;20523;-65
2024/04/10 08:19:47;;;;;;;6.72;1.98;;;;;;;;;;5424066;26;20009;-62
2024/04/10 08:22:13;;;;;;;6.47;1.70;;;;;;;;;;5453603;26;20466;-64
2024/04/10 08:24:38;;;;;;;8.05;1.90;;;;;;;;;;5446597;26;20053;-65
2024/04/10 08:27:04;;;;;;;5.78;1.70;;;;;;;;;;5460459;26;20006;-66
2024/04/10 08:29:30;;;;;;;7.00;1.95;;;;;;;;;;5443195;26;20043;-67
2024/04/10 08:31:56;;;;;;;8.23;2.00;;;;;;;;;;5453406;26;20079;-64
2024/04/10 08:34:21;;;;;;;;;;;;;;;;;;5440690;26;20006;-65
2024/04/10 08:36:47;;;;;;;6.88;1.70;;;;;;;;;;5452297;26;19931;-66
2024/04/10 08:39:13;;;;;;;7.10;1.90;;;;;;;;;;5451008;26;20014;-65
2024/04/10 08:41:41;;;;;;;7.95;2.20;;;;;;;;;;5452141;26;20320;-65
2024/04/10 08:44:07;;;;;;;5.82;1.83;;;;;;;;;;5449449;26;19999;-65
2024/04/10 08:46:34;;;;;;;6.75;1.88;;;;;;;;;;5452415;26;20009;-65
2024/04/10 08:49:01;;;;;;;7.32;1.90;;;;;;;;;;5451387;26;20014;-64
2024/04/10 08:51:27;;;;;;;9.98;2.33;;;;;;;;;;5452191;26;20456;-65
2024/04/10 08:53:54;;;;;;;7.68;1.90;;;;;;;;;;5434381;26;20000;-64
2024/04/10 08:56:20;;;;;;;9.02;1.70;;;;;;;;;;5445805;26;20408;-65
2024/04/10 08:58:45;;;;;;;8.20;1.92;;;;;;;;;;5453658;26;20007;-64
2024/04/10 09:01:23;;;;;;;7.82;2.30;;;;;;;;;;5428897;26;20011;-64
2024/04/10 09:03:49;;;;;;;;;;;;;;;;;;5439991;26;20015;-65
2024/04/10 09:06:14;;;;;;;10.27;2.30;;;;;;;;;;5454090;26;19936;-65
2024/04/10 09:08:40;;;;;;;9.43;2.17;;;;;;;;;;5454730;26;20886;-66
2024/04/10 09:11:05;;;;;;;5.95;2.08;;;;;;;;;;5449447;26;19999;-63
2024/04/10 09:13:31;;;;;;;7.13;1.95;;;;;;;;;;5452227;26;20010;-65
2024/04/10 09:15:57;;;;;;;7.00;2.00;;;;;;;;;;5449051;26;20002;-64
2024/04/10 09:18:22;;;;;;;6.93;2.00;;;;;;;;;;5452233;26;20541;-66
2024/04/10 09:20:48;;;;;;;6.70;1.98;;;;;;;;;;5443577;26;20002;-64
2024/04/10 09:23:14;;;;;;;5.80;1.85;;;;;;;;;;5449806;26;20051;-64
2024/04/10 09:25:42;;;;;;;;;;;;;;;;;;5450671;26;19995;-65
2024/04/10 09:28:07;;;;;;;5.95;1.98;;;;;;;;;;5451446;26;19928;-64
2024/04/10 09:30:34;;;;;;;9.27;2.20;;;;;;;;;;5443217;26;20075;-65
2024/04/10 09:33:00;;;;;;;6.75;2.15;;;;;;;;;;5449547;26;20022;-64
2024/04/10 09:35:26;;;;;;;10.88;2.20;;;;;;;;;;5451474;26;20734;-65
2024/04/10 09:37:58;;;;;;;9.63;2.28;;;;;;;;;;5442387;26;20018;-65
2024/04/10 09:40:25;;;;;;;8.32;1.90;;;;;;;;;;5451425;26;20373;-66
2024/04/10 09:42:56;;;;;;;7.82;2.10;;;;;;;;;;5441646;26;20003;-65
2024/04/10 09:45:26;;;;;;;8.45;2.20;;;;;;;;;;5424462;26;19992;-65
2024/04/10 09:47:52;;;;;;;7.45;2.13;;;;;;;;;;5445933;26;19999;-65
2024/04/10 09:50:18;;;;;;;8.70;2.55;;;;;;;;;;5467831;26;20003;-64
2024/04/10 09:52:47;;;;;;;6.65;1.90;;;;;;;;;;5457640;26;20049;-66
2024/04/10 09:55:13;;;;;;;8.80;2.30;;;;;;;;;;5449011;26;20007;-64
2024/04/10 09:57:39;;;;;;;5.10;1.73;;;;;;;;;;5426979;26;20013;-64
2024/04/10 10:00:08;;;;;;;7.55;2.03;;;;;;;;;;5451713;26;20055;-63
2024/04/10 10:02:34;;;;;;;6.00;1.80;;;;;;;;;;5450241;26;20039;-64
2024/04/10 10:04:59;;;;;;;7.63;1.80;;;;;;;;;;5451314;26;20421;-65
2024/04/10 10:07:25;;;;;;;6.20;2.00;;;;;;;;;;5446138;26;20003;-62
2024/04/10 10:09:51;;;;;;;6.53;1.95;;;;;;;;;;5450370;26;20503;-62
2024/04/10 10:12:26;;;;;;;6.63;1.90;;;;;;;;;;5451983;26;20106;-62
2024/04/10 10:14:51;;;;;;;10.27;1.92;;;;;;;;;;5440782;26;20003;-63
2024/04/10 10:17:24;;;;;;;6.13;1.80;;;;;;;;;;5443811;26;19999;-66
2024/04/10 10:19:49;;;;;;;5.55;1.70;;;;;;;;;;5450285;26;20335;-63
2024/04/10 10:22:15;;;;;;;8.70;2.00;;;;;;;;;;5451353;26;20059;-64
2024/04/10 10:24:40;;;;;;;8.13;2.30;;;;;;;;;;5448835;26;20013;-64
2024/04/10 10:27:06;;;;;;;7.88;1.83;;;;;;;;;;5438990;26;20012;-65
2024/04/10 10:29:31;;;;;;;6.20;2.03;;;;;;;;;;5427629;26;20075;-64
2024/04/10 10:32:03;;;;;;;6.30;2.15;;;;;;;;;;5450213;26;19998;-63
2024/04/10 10:34:29;;;;;;;;;;;;;;;;;;5438087;26;20015;-64
2024/04/10 10:36:54;;;;;;;6.73;1.90;;;;;;;;;;5450325;26;19924;-66
2024/04/10 10:39:20;;;;;;;6.85;2.10;;;;;;;;;;5449265;26;20428;-62
2024/04/10 10:41:46;;;;;;;9.50;2.75;;;;;;;;;;5451248;26;19995;-66
2024/04/10 10:44:19;;;;;;;6.07;1.85;;;;;;;;;;5440223;26;19999;-63
2024/04/10 10:46:45;;;;;;;6.18;1.92;;;;;;;;;;5447456;26;19998;-65
2024/04/10 10:49:10;;;;;;;7.20;1.95;;;;;;;;;;5449607;26;20075;-66
2024/04/10 10:51:36;;;;;;;6.22;1.90;;;;;;;;;;5450574;26;19999;-65
2024/04/10 10:54:01;;;;;;;6.30;1.85;;;;;;;;;;5442401;26;20003;-64
2024/04/10 10:56:28;;;;;;;4.85;1.75;;;;;;;;;;5431583;26;20072;-63
2024/04/10 10:58:54;;;;;;;5.82;1.88;;;;;;;;;;5449224;26;21450;-63
2024/04/10 11:01:20;;;;;;;8.95;2.45;;;;;;;;;;5450709;26;20038;-65
2024/04/10 11:03:47;;;;;;;6.00;1.98;;;;;;;;;;5446500;26;20014;-64
2024/04/10 11:06:13;;;;;;;8.63;2.25;;;;;;;;;;5440686;26;20010;-64
2024/04/10 11:08:38;;;;;;;8.25;1.95;;;;;;;;;;5448634;26;20002;-63
2024/04/10 11:11:04;;;;;;;8.43;2.33;;;;;;;;;;5449838;26;20728;-63
2024/04/10 11:13:30;;;;;;;7.45;2.00;;;;;;;;;;5449977;26;20067;-64
2024/04/10 11:15:58;;;;;;;7.95;1.90;;;;;;;;;;5446248;26;19998;-64
2024/04/10 11:18:23;;;;;;;7.35;2.35;;;;;;;;;;5450415;26;20007;-63
2024/04/10 11:20:50;;;;;;;6.47;2.00;;;;;;;;;;5444138;26;20035;-63
2024/04/10 11:23:15;;;;;;;;;;;;;;;;;;5436018;26;20018;-63
2024/04/10 11:25:41;;;;;;;6.70;1.75;;;;;;;;;;5437762;26;20063;-64
2024/04/10 11:28:07;;;;;;;7.60;2.10;;;;;;;;;;5460772;26;20011;-64
2024/04/10 11:30:32;;;;;;;7.68;2.10;;;;;;;;;;5462396;26;20013;-63
2024/04/10 11:32:58;;;;;;;7.40;2.40;;;;;;;;;;5455299;26;20076;-66
2024/04/10 11:35:24;;;;;;;10.30;2.30;;;;;;;;;;5453073;26;19991;-67
2024/04/10 11:37:50;;;;;;;6.50;2.30;;;;;;;;;;5457272;26;20055;-70
2024/04/10 11:40:16;;;;;;;6.25;1.95;;;;;;;;;;5460391;26;20006;-64
2024/04/10 11:42:41;;;;;;;7.40;2.30;;;;;;;;;;5453165;26;20026;-65
2024/04/10 11:45:07;;;;;;;8.75;2.30;;;;;;;;;;5455511;26;20451;-64
2024/04/10 11:47:33;;;;;;;6.60;1.88;;;;;;;;;;5456374;26;20001;-63
2024/04/10 11:49:58;;;;;;;5.00;2.22;;;;;;;;;;5461053;26;19995;-66
2024/04/10 11:52:24;;;;;;;6.85;2.10;;;;;;;;;;5454340;26;19991;-65
2024/04/10 11:54:49;;;;;;;4.57;1.45;;;;;;;;;;5435508;26;20003;-64
2024/04/10 11:57:15;;;;;;;5.25;1.83;;;;;;;;;;5436132;26;20011;-63
2024/04/10 11:59:40;;;;;;;7.53;1.80;;;;;;;;;;5445158;26;19999;-63
2024/04/10 12:02:06;;;;;;;5.70;1.90;;;;;;;;;;5447894;26;20017;-64
2024/04/10 12:04:32;;;;;;;6.63;2.10;;;;;;;;;;5443070;26;20443;-65
2024/04/10 12:06:58;;;;;;;4.40;1.65;;;;;;;;;;5436485;26;19991;-66
2024/04/10 12:09:25;;;;;;;5.03;1.55;;;;;;;;;;5448544;26;20003;-66
2024/04/10 12:11:50;;;;;;;5.22;1.65;;;;;;;;;;5448204;26;20019;-64
2024/04/10 12:14:17;;;;;;;5.82;2.17;;;;;;;;;;5443158;26;21875;-64
2024/04/10 12:16:43;;;;;;;6.57;2.35;;;;;;;;;;5447087;26;19995;-65
2024/04/10 12:19:09;;;;;;;5.78;1.95;;;;;;;;;;5445714;26;20009;-66
2024/04/10 12:21:34;;;;;;;7.50;2.40;;;;;;;;;;5445323;26;20006;-65
2024/04/10 12:24:02;;;;;;;8.90;2.15;;;;;;;;;;5441619;26;20114;-62
2024/04/10 12:26:30;;;;;;;6.50;1.80;;;;;;;;;;5448067;26;20047;-64
2024/04/10 12:28:56;;;;;;;6.22;1.90;;;;;;;;;;5448937;26;20011;-63
2024/04/10 12:31:22;;;;;;;7.57;1.90;;;;;;;;;;5448099;26;20013;-63
2024/04/10 12:33:47;;;;;;;5.32;1.98;;;;;;;;;;5441115;26;20007;-66
2024/04/10 12:38:57;;;;;;;7.50;2.55;;;;;;;;;;5450714;26;20013;-63
2024/04/10 12:41:23;;;;;;;6.22;2.10;;;;;;;;;;5452594;26;20002;-69
2024/04/10 12:43:50;;;;;;;6.72;1.90;;;;;;;;;;5447076;26;20075;-66
2024/04/10 12:46:20;;;;;;;8.25;2.20;;;;;;;;;;5454558;26;20025;-63
2024/04/10 12:48:45;;;;;;;7.32;1.85;;;;;;;;;;5453507;26;20010;-64
2024/04/10 12:51:11;;;;;;;5.90;2.10;;;;;;;;;;5452625;26;20451;-65
2024/04/10 12:53:36;;;;;;;7.93;2.50;;;;;;;;;;5448298;26;20506;-63
2024/04/10 12:56:02;;;;;;;5.57;2.00;;;;;;;;;;5449835;26;19991;-64
2024/04/10 12:58:28;;;;;;;5.70;2.17;;;;;;;;;;5436672;26;20004;-63
2024/04/10 13:00:53;;;;;;;5.38;1.92;;;;;;;;;;5447424;26;20396;-65
2024/04/10 13:03:19;;;;;;;6.50;2.15;;;;;;;;;;5444290;26;20326;-65
2024/04/10 13:05:56;;;;;;;8.57;2.30;;;;;;;;;;5449918;26;20033;-65
2024/04/10 13:08:22;;;;;;;6.20;2.00;;;;;;;;;;5445015;26;19999;-63
2024/04/10 13:10:47;;;;;;;5.38;1.63;;;;;;;;;;5448903;26;19994;-64
2024/04/10 13:13:13;;;;;;;5.72;1.80;;;;;;;;;;5451578;26;20531;-67
2024/04/10 13:15:39;;;;;;;5.30;2.03;;;;;;;;;;5450207;26;19991;-64
2024/04/10 13:18:04;;;;;;;7.63;2.50;;;;;;;;;;5452170;26;20002;-64
2024/04/10 13:20:30;;;;;;;6.75;2.00;;;;;;;;;;5451465;26;19995;-68
2024/04/10 13:22:55;;;;;;;4.68;2.10;;;;;;;;;;5446518;26;20007;-66
2024/04/10 13:25:21;;;;;;;7.07;2.45;;;;;;;;;;5431454;26;20013;-63
2024/04/10 13:27:46;;;;;;;4.85;1.80;;;;;;;;;;5450824;26;20079;-63
2024/04/10 13:30:12;;;;;;;6.55;2.00;;;;;;;;;;5450042;26;20002;-65
2024/04/10 13:32:38;;;;;;;5.78;2.17;;;;;;;;;;5451689;26;20070;-65
2024/04/10 13:35:03;;;;;;;7.03;1.88;;;;;;;;;;5452001;26;19999;-63
2024/04/10 13:37:29;;;;;;;9.88;2.10;;;;;;;;;;5420483;26;20610;-65
2024/04/10 13:39:55;;;;;;;7.50;1.90;;;;;;;;;;5415176;26;20007;-64
2024/04/10 13:42:20;;;;;;;6.13;1.60;;;;;;;;;;5428527;26;20010;-64
2024/04/10 13:44:46;;;;;;;8.40;3.20;;;;;;;;;;5451151;26;19987;-67
2024/04/10 13:47:11;;;;;;;9.35;2.13;;;;;;;;;;5443716;26;20083;-65
2024/04/10 13:49:39;;;;;;;6.13;2.00;;;;;;;;;;5447030;26;20011;-64
2024/04/10 13:52:05;;;;;;;5.22;1.90;;;;;;;;;;5433978;26;20779;-65
2024/04/10 13:54:32;;;;;;;6.55;1.83;;;;;;;;;;5439435;26;19999;-65
2024/04/10 13:56:58;;;;;;;6.03;1.92;;;;;;;;;;5433875;26;20035;-64
2024/04/10 13:59:23;;;;;;;8.57;2.20;;;;;;;;;;5429724;26;20453;-64
2024/04/10 14:01:49;;;;;;;7.38;1.85;;;;;;;;;;5435726;26;20411;-63
2024/04/10 14:04:14;;;;;;;6.18;2.17;;;;;;;;;;5423951;26;20444;-64
2024/04/10 14:06:40;;;;;;;5.75;1.90;;;;;;;;;;5446780;26;20335;-66
2024/04/10 14:09:05;;;;;;;5.68;2.03;;;;;;;;;;5440043;26;20475;-65
2024/04/10 14:11:31;;;;;;;6.75;2.20;;;;;;;;;;5452755;26;20523;-64
2024/04/10 14:13:57;;;;;;;7.35;2.60;;;;;;;;;;5452763;26;20000;-64
2024/04/10 14:16:23;;;;;;;9.65;3.03;;;;;;;;;;5457894;26;20010;-67
2024/04/10 14:18:48;;;;;;;6.78;2.20;;;;;;;;;;5468457;26;20003;-64
2024/04/10 14:21:14;;;;;;;8.60;2.70;;;;;;;;;;5458009;26;20002;-64
2024/04/10 14:23:40;;;;;;;8.93;2.90;;;;;;;;;;5451700;26;20466;-64
2024/04/10 14:26:05;;;;;;;;;;;;;;;;;;5445844;26;20013;-64
2024/04/10 14:28:31;;;;;;;7.50;2.17;;;;;;;;;;5450478;26;20361;-65
2024/04/10 14:31:02;;;;;;;7.63;2.40;;;;;;;;;;5451191;26;20292;-66
2024/04/10 14:33:27;;;;;;;6.28;2.28;;;;;;;;;;5450576;26;19999;-64
2024/04/10 14:35:53;;;;;;;5.63;2.08;;;;;;;;;;5451121;26;20111;-64
2024/04/10 14:38:19;;;;;;;7.70;2.70;;;;;;;;;;5451021;26;20036;-64
2024/04/10 14:40:44;;;;;;;5.50;2.28;;;;;;;;;;5452276;26;20094;-64
2024/04/10 14:43:10;;;;;;;7.07;2.50;;;;;;;;;;5451040;26;20043;-67
2024/04/10 14:45:35;;;;;;;7.30;2.53;;;;;;;;;;5450731;26;20002;-65